sensor_id;sensor_type;location;lat;lon;timestamp;pressure;altitude;pressure_sealevel;temperature;humidity
13011;BME280;6786;57.632;11.962;2023-08-30T00:00:36;100097.47;;;20.88;70.15
13011;BME280;6786;57.632;11.962;2023-08-30T00:03:05;100092.75;;;20.82;70.33
13011;BME280;6786;57.632;11.962;2023-08-30T00:05:33;100102.53;;;20.91;70.08
13011;BME280;6786;57.632;11.962;2023-08-30T00:08:01;100094.63;;;20.90;70.08
13011;BME280;6786;57.632;11.962;2023-08-30T00:10:30;100085.88;;;20.88;70.29
13011;BME280;6786;57.632;11.962;2023-08-30T00:12:58;100095.50;;;20.90;70.30
13011;BME280;6786;57.632;11.962;2023-08-30T00:15:28;100073.28;;;20.80;70.09
13011;BME280;6786;57.632;11.962;2023-08-30T00:17:56;100088.41;;;20.89;70.07
13011;BME280;6786;57.632;11.962;2023-08-30T00:20:24;100088.41;;;20.89;70.11
13011;BME280;6786;57.632;11.962;2023-08-30T00:22:52;100088.41;;;20.89;70.46
13011;BME280;6786;57.632;11.962;2023-08-30T00:25:20;100097.47;;;20.88;70.21
13011;BME280;6786;57.632;11.962;2023-08-30T00:27:48;100085.72;;;20.81;70.33
13011;BME280;6786;57.632;11.962;2023-08-30T00:30:16;100102.84;;;20.88;70.06
13011;BME280;6786;57.632;11.962;2023-08-30T00:32:46;100101.19;;;20.87;70.29
13011;BME280;6786;57.632;11.962;2023-08-30T00:35:14;100070.56;;;20.72;70.26
13011;BME280;6786;57.632;11.962;2023-08-30T00:37:42;100109.91;;;20.89;70.02
13011;BME280;6786;57.632;11.962;2023-08-30T00:40:11;100092.13;;;20.88;70.07
13011;BME280;6786;57.632;11.962;2023-08-30T00:42:40;99989.81;;;20.24;70.05
13011;BME280;6786;57.632;11.962;2023-08-30T00:45:09;100092.13;;;20.88;70.07
13011;BME280;6786;57.632;11.962;2023-08-30T00:47:37;100087.59;;;20.89;70.00
13011;BME280;6786;57.632;11.962;2023-08-30T00:50:08;100083.03;;;20.89;70.21
13011;BME280;6786;57.632;11.962;2023-08-30T00:52:37;100089.25;;;20.90;69.87
13011;BME280;6786;57.632;11.962;2023-08-30T00:55:06;100083.03;;;20.89;70.01
13011;BME280;6786;57.632;11.962;2023-08-30T00:57:35;100076.00;;;20.88;70.02
13011;BME280;6786;57.632;11.962;2023-08-30T01:00:06;100072.28;;;20.89;70.23
13011;BME280;6786;57.632;11.962;2023-08-30T01:02:34;100081.38;;;20.88;70.15
13011;BME280;6786;57.632;11.962;2023-08-30T01:05:03;99993.91;;;20.36;70.02
13011;BME280;6786;57.632;11.962;2023-08-30T01:07:32;100070.09;;;20.85;69.93
13011;BME280;6786;57.632;11.962;2023-08-30T01:10:00;100077.66;;;20.89;70.29
13011;BME280;6786;57.632;11.962;2023-08-30T01:12:35;100076.00;;;20.88;70.22
13011;BME280;6786;57.632;11.962;2023-08-30T01:15:09;99917.22;;;20.00;70.00
13011;BME280;6786;57.632;11.962;2023-08-30T01:17:41;100068.78;;;20.89;70.19
13011;BME280;6786;57.632;11.962;2023-08-30T01:20:11;100067.78;;;20.90;69.97
13011;BME280;6786;57.632;11.962;2023-08-30T01:22:53;100045.06;;;20.76;69.82
13011;BME280;6786;57.632;11.962;2023-08-30T01:25:31;100066.94;;;20.89;70.02
13011;BME280;6786;57.632;11.962;2023-08-30T01:28:04;100063.25;;;20.90;70.13
13011;BME280;6786;57.632;11.962;2023-08-30T01:30:34;100047.13;;;20.90;69.74
13011;BME280;6786;57.632;11.962;2023-08-30T01:33:04;100052.50;;;20.90;69.76
13011;BME280;6786;57.632;11.962;2023-08-30T01:35:34;100046.09;;;20.83;69.97
13011;BME280;6786;57.632;11.962;2023-08-30T01:38:04;99983.88;;;20.46;69.75
13011;BME280;6786;57.632;11.962;2023-08-30T01:40:36;100049.66;;;20.92;69.88
13011;BME280;6786;57.632;11.962;2023-08-30T01:43:09;99973.13;;;20.46;69.78
13011;BME280;6786;57.632;11.962;2023-08-30T01:45:41;100025.78;;;20.81;69.87
13011;BME280;6786;57.632;11.962;2023-08-30T01:48:12;99991.63;;;20.57;69.81
13011;BME280;6786;57.632;11.962;2023-08-30T01:50:42;100038.41;;;20.88;69.99
13011;BME280;6786;57.632;11.962;2023-08-30T01:53:13;100041.44;;;20.93;69.62
13011;BME280;6786;57.632;11.962;2023-08-30T01:55:44;100045.44;;;20.89;69.87
13011;BME280;6786;57.632;11.962;2023-08-30T01:58:14;100042.09;;;20.87;70.15
13011;BME280;6786;57.632;11.962;2023-08-30T02:00:43;100047.47;;;20.87;69.93
13011;BME280;6786;57.632;11.962;2023-08-30T02:03:13;99969.78;;;20.44;69.94
13011;BME280;6786;57.632;11.962;2023-08-30T02:05:50;100052.50;;;20.90;69.79
13011;BME280;6786;57.632;11.962;2023-08-30T02:08:22;99968.13;;;20.51;69.80
13011;BME280;6786;57.632;11.962;2023-08-30T02:10:56;100028.34;;;20.90;69.78
13011;BME280;6786;57.632;11.962;2023-08-30T02:13:30;99939.38;;;20.36;69.76
13011;BME280;6786;57.632;11.962;2023-08-30T02:16:00;100012.19;;;20.82;69.59
13011;BME280;6786;57.632;11.962;2023-08-30T02:18:29;100027.31;;;20.91;69.83
13011;BME280;6786;57.632;11.962;2023-08-30T02:21:00;100022.28;;;20.88;69.79
13011;BME280;6786;57.632;11.962;2023-08-30T02:23:28;100021.94;;;20.91;69.49
13011;BME280;6786;57.632;11.962;2023-08-30T02:25:57;100006.16;;;20.88;69.72
13011;BME280;6786;57.632;11.962;2023-08-30T02:28:29;100011.22;;;20.91;69.74
13011;BME280;6786;57.632;11.962;2023-08-30T02:30:57;99964.91;;;20.48;69.53
13011;BME280;6786;57.632;11.962;2023-08-30T02:33:27;100009.88;;;20.87;69.71
13011;BME280;6786;57.632;11.962;2023-08-30T02:35:55;100013.88;;;20.91;69.47
13011;BME280;6786;57.632;11.962;2023-08-30T02:38:24;100004.16;;;20.90;69.63
13011;BME280;6786;57.632;11.962;2023-08-30T02:40:52;100011.75;;;20.95;69.65
13011;BME280;6786;57.632;11.962;2023-08-30T02:43:22;99937.94;;;20.57;69.41
13011;BME280;6786;57.632;11.962;2023-08-30T02:45:53;100009.38;;;20.92;69.47
13011;BME280;6786;57.632;11.962;2023-08-30T02:48:22;100003.31;;;20.90;69.28
13011;BME280;6786;57.632;11.962;2023-08-30T02:50:51;100004.66;;;20.94;69.35
13011;BME280;6786;57.632;11.962;2023-08-30T02:53:19;100009.22;;;20.93;69.57
13011;BME280;6786;57.632;11.962;2023-08-30T02:55:48;100009.22;;;20.93;69.43
13011;BME280;6786;57.632;11.962;2023-08-30T02:58:16;99999.44;;;20.92;69.61
13011;BME280;6786;57.632;11.962;2023-08-30T03:00:45;100005.84;;;20.91;69.51
13011;BME280;6786;57.632;11.962;2023-08-30T03:03:15;100005.84;;;20.91;69.40
13011;BME280;6786;57.632;11.962;2023-08-30T03:05:44;100001.47;;;20.90;69.69
13011;BME280;6786;57.632;11.962;2023-08-30T03:08:16;100021.94;;;20.91;69.53
13011;BME280;6786;57.632;11.962;2023-08-30T03:10:45;100016.56;;;20.91;69.48
13011;BME280;6786;57.632;11.962;2023-08-30T03:13:14;100011.22;;;20.91;69.47
13011;BME280;6786;57.632;11.962;2023-08-30T03:15:43;100005.84;;;20.91;69.43
13011;BME280;6786;57.632;11.962;2023-08-30T03:18:12;100013.88;;;20.91;69.70
13011;BME280;6786;57.632;11.962;2023-08-30T03:20:42;100013.88;;;20.91;69.46
13011;BME280;6786;57.632;11.962;2023-08-30T03:23:10;100012.88;;;20.92;69.50
13011;BME280;6786;57.632;11.962;2023-08-30T03:25:39;100007.50;;;20.92;69.41
13011;BME280;6786;57.632;11.962;2023-08-30T03:28:08;100015.56;;;20.92;69.49
13011;BME280;6786;57.632;11.962;2023-08-30T03:30:37;100018.25;;;20.92;69.53
13011;BME280;6786;57.632;11.962;2023-08-30T03:33:06;100010.03;;;20.94;69.45
13011;BME280;6786;57.632;11.962;2023-08-30T03:35:34;100010.91;;;20.94;69.25
13011;BME280;6786;57.632;11.962;2023-08-30T03:38:05;100005.84;;;20.91;69.34
13011;BME280;6786;57.632;11.962;2023-08-30T03:40:34;100006.81;;;20.82;69.20
13011;BME280;6786;57.632;11.962;2023-08-30T03:43:06;100006.84;;;20.90;69.05
13011;BME280;6786;57.632;11.962;2023-08-30T03:45:35;100001.47;;;20.90;69.56
13011;BME280;6786;57.632;11.962;2023-08-30T03:48:06;99997.41;;;20.86;69.32
13011;BME280;6786;57.632;11.962;2023-08-30T03:50:35;100005.47;;;20.86;69.34
13011;BME280;6786;57.632;11.962;2023-08-30T03:53:05;100004.16;;;20.90;69.25
13011;BME280;6786;57.632;11.962;2023-08-30T03:55:34;100010.19;;;20.92;69.27
13011;BME280;6786;57.632;11.962;2023-08-30T03:58:03;99936.59;;;20.53;69.18
13011;BME280;6786;57.632;11.962;2023-08-30T04:00:32;99922.81;;;20.48;69.37
13011;BME280;6786;57.632;11.962;2023-08-30T04:03:04;99991.38;;;20.84;69.19
13011;BME280;6786;57.632;11.962;2023-08-30T04:05:33;99998.47;;;20.93;69.24
13011;BME280;6786;57.632;11.962;2023-08-30T04:08:02;99954.91;;;20.66;69.05
13011;BME280;6786;57.632;11.962;2023-08-30T04:10:35;99996.75;;;20.92;69.27
13011;BME280;6786;57.632;11.962;2023-08-30T04:13:05;99892.56;;;20.30;69.46
13011;BME280;6786;57.632;11.962;2023-08-30T04:15:37;99996.75;;;20.92;69.32
13011;BME280;6786;57.632;11.962;2023-08-30T04:18:06;99997.78;;;20.91;69.30
13011;BME280;6786;57.632;11.962;2023-08-30T04:20:36;99997.09;;;20.89;69.02
13011;BME280;6786;57.632;11.962;2023-08-30T04:23:04;100001.47;;;20.90;69.05
13011;BME280;6786;57.632;11.962;2023-08-30T04:25:35;99997.78;;;20.91;69.00
13011;BME280;6786;57.632;11.962;2023-08-30T04:28:04;99916.59;;;20.48;69.18
13011;BME280;6786;57.632;11.962;2023-08-30T04:30:36;99993.41;;;20.90;69.43
13011;BME280;6786;57.632;11.962;2023-08-30T04:33:07;99988.03;;;20.90;69.00
13011;BME280;6786;57.632;11.962;2023-08-30T04:35:36;99896.31;;;20.45;69.09
13011;BME280;6786;57.632;11.962;2023-08-30T04:38:04;99971.94;;;20.90;68.98
13011;BME280;6786;57.632;11.962;2023-08-30T04:40:33;99830.09;;;20.04;69.21
13011;BME280;6786;57.632;11.962;2023-08-30T04:43:03;99928.22;;;20.64;69.03
13011;BME280;6786;57.632;11.962;2023-08-30T04:45:31;99966.88;;;20.87;69.17
13011;BME280;6786;57.632;11.962;2023-08-30T04:48:02;99967.53;;;20.89;68.91
13011;BME280;6786;57.632;11.962;2023-08-30T04:50:35;99966.56;;;20.90;68.68
13011;BME280;6786;57.632;11.962;2023-08-30T04:53:13;99971.94;;;20.90;68.80
13011;BME280;6786;57.632;11.962;2023-08-30T04:55:42;99971.06;;;20.90;69.03
13011;BME280;6786;57.632;11.962;2023-08-30T04:58:12;99961.19;;;20.90;68.90
13011;BME280;6786;57.632;11.962;2023-08-30T05:00:40;99868.78;;;20.35;68.75
13011;BME280;6786;57.632;11.962;2023-08-30T05:03:09;99965.72;;;20.90;68.84
13011;BME280;6786;57.632;11.962;2023-08-30T05:05:38;99955.81;;;20.90;69.07
13011;BME280;6786;57.632;11.962;2023-08-30T05:08:08;99957.47;;;20.91;69.13
13011;BME280;6786;57.632;11.962;2023-08-30T05:10:37;99964.53;;;20.92;68.82
13011;BME280;6786;57.632;11.962;2023-08-30T05:13:06;99960.84;;;20.93;68.93
13011;BME280;6786;57.632;11.962;2023-08-30T05:15:37;99955.47;;;20.93;68.82
13011;BME280;6786;57.632;11.962;2023-08-30T05:18:06;99967.94;;;20.94;68.82
13011;BME280;6786;57.632;11.962;2023-08-30T05:20:35;99892.28;;;20.49;68.91
13011;BME280;6786;57.632;11.962;2023-08-30T05:23:03;99973.31;;;20.94;68.54
13011;BME280;6786;57.632;11.962;2023-08-30T05:25:32;99961.19;;;20.90;68.52
13011;BME280;6786;57.632;11.962;2023-08-30T05:28:00;99906.72;;;20.48;68.72
13011;BME280;6786;57.632;11.962;2023-08-30T05:30:29;99899.34;;;20.50;68.61
13011;BME280;6786;57.632;11.962;2023-08-30T05:32:59;99975.28;;;20.92;68.91
13011;BME280;6786;57.632;11.962;2023-08-30T05:35:27;99903.00;;;20.49;68.68
13011;BME280;6786;57.632;11.962;2023-08-30T05:37:55;99973.59;;;20.91;68.97
13011;BME280;6786;57.632;11.962;2023-08-30T05:40:23;99974.28;;;20.93;68.89
13011;BME280;6786;57.632;11.962;2023-08-30T05:42:54;99937.97;;;20.73;68.61
13011;BME280;6786;57.632;11.962;2023-08-30T05:45:23;99897.66;;;20.49;68.63
13011;BME280;6786;57.632;11.962;2023-08-30T05:47:53;99824.03;;;20.02;68.65
13011;BME280;6786;57.632;11.962;2023-08-30T05:50:23;99967.22;;;20.92;68.96
13011;BME280;6786;57.632;11.962;2023-08-30T05:52:51;99894.31;;;20.47;68.72
13011;BME280;6786;57.632;11.962;2023-08-30T05:55:20;99969.06;;;20.92;68.59
13011;BME280;6786;57.632;11.962;2023-08-30T05:57:49;99949.72;;;20.80;68.66
13011;BME280;6786;57.632;11.962;2023-08-30T06:00:19;99966.56;;;20.90;68.91
13011;BME280;6786;57.632;11.962;2023-08-30T06:02:48;99973.59;;;20.91;68.56
13011;BME280;6786;57.632;11.962;2023-08-30T06:05:18;99986.00;;;20.92;68.94
13011;BME280;6786;57.632;11.962;2023-08-30T06:07:48;99976.97;;;20.93;68.89
13011;BME280;6786;57.632;11.962;2023-08-30T06:10:16;99971.59;;;20.93;68.74
13011;BME280;6786;57.632;11.962;2023-08-30T06:12:44;99966.22;;;20.93;68.93
13011;BME280;6786;57.632;11.962;2023-08-30T06:15:14;99895.28;;;20.38;68.85
13011;BME280;6786;57.632;11.962;2023-08-30T06:17:43;99966.22;;;20.93;68.77
13011;BME280;6786;57.632;11.962;2023-08-30T06:20:13;99961.50;;;20.87;68.58
13011;BME280;6786;57.632;11.962;2023-08-30T06:22:41;99971.59;;;20.93;68.82
13011;BME280;6786;57.632;11.962;2023-08-30T06:25:13;99961.69;;;20.86;68.81
13011;BME280;6786;57.632;11.962;2023-08-30T06:27:54;99976.97;;;20.93;68.60
13011;BME280;6786;57.632;11.962;2023-08-30T06:30:23;99968.88;;;20.85;68.69
13011;BME280;6786;57.632;11.962;2023-08-30T06:32:52;99969.91;;;20.92;68.68
13011;BME280;6786;57.632;11.962;2023-08-30T06:35:22;99962.84;;;20.91;68.51
13011;BME280;6786;57.632;11.962;2023-08-30T06:37:51;99965.53;;;20.91;68.74
13011;BME280;6786;57.632;11.962;2023-08-30T06:40:21;99958.50;;;20.90;68.73
13011;BME280;6786;57.632;11.962;2023-08-30T06:42:49;99971.25;;;20.88;68.92
13011;BME280;6786;57.632;11.962;2023-08-30T06:45:19;99965.88;;;20.88;68.66
13011;BME280;6786;57.632;11.962;2023-08-30T06:47:48;99976.63;;;20.88;68.73
13011;BME280;6786;57.632;11.962;2023-08-30T06:50:17;99970.38;;;20.88;68.85
13011;BME280;6786;57.632;11.962;2023-08-30T06:52:46;99978.44;;;20.88;68.82
13011;BME280;6786;57.632;11.962;2023-08-30T06:55:15;99979.63;;;20.85;68.93
13011;BME280;6786;57.632;11.962;2023-08-30T06:57:47;99985.00;;;20.85;69.16
13011;BME280;6786;57.632;11.962;2023-08-30T07:00:17;99969.88;;;20.76;68.79
13011;BME280;6786;57.632;11.962;2023-08-30T07:02:45;99992.91;;;20.87;68.83
13011;BME280;6786;57.632;11.962;2023-08-30T07:05:14;99983.34;;;20.84;69.02
13011;BME280;6786;57.632;11.962;2023-08-30T07:07:44;99976.91;;;20.77;69.17
13011;BME280;6786;57.632;11.962;2023-08-30T07:10:13;99990.38;;;20.85;68.95
13011;BME280;6786;57.632;11.962;2023-08-30T07:12:41;99925.47;;;20.40;68.87
13011;BME280;6786;57.632;11.962;2023-08-30T07:15:13;99995.75;;;20.85;68.99
13011;BME280;6786;57.632;11.962;2023-08-30T07:17:44;99981.47;;;20.85;69.20
13011;BME280;6786;57.632;11.962;2023-08-30T07:20:20;99992.03;;;20.86;69.10
13011;BME280;6786;57.632;11.962;2023-08-30T07:22:49;100004.81;;;20.84;69.01
13011;BME280;6786;57.632;11.962;2023-08-30T07:25:17;99983.34;;;20.84;68.91
13011;BME280;6786;57.632;11.962;2023-08-30T07:27:47;99981.63;;;20.83;69.08
13011;BME280;6786;57.632;11.962;2023-08-30T07:30:18;99959.44;;;20.65;69.18
13011;BME280;6786;57.632;11.962;2023-08-30T07:32:46;99955.06;;;20.64;69.14
13011;BME280;6786;57.632;11.962;2023-08-30T07:35:14;99995.75;;;20.85;69.01
13011;BME280;6786;57.632;11.962;2023-08-30T07:37:43;99999.28;;;20.86;68.93
13011;BME280;6786;57.632;11.962;2023-08-30T07:40:12;99909.19;;;20.34;68.92
13011;BME280;6786;57.632;11.962;2023-08-30T07:42:41;99997.41;;;20.86;69.06
13011;BME280;6786;57.632;11.962;2023-08-30T07:45:10;99994.72;;;20.86;69.08
13011;BME280;6786;57.632;11.962;2023-08-30T07:47:40;99997.41;;;20.86;68.90
13011;BME280;6786;57.632;11.962;2023-08-30T07:50:09;99998.28;;;20.87;69.12
13011;BME280;6786;57.632;11.962;2023-08-30T07:52:37;99839.44;;;19.92;69.04
13011;BME280;6786;57.632;11.962;2023-08-30T07:55:12;100007.34;;;20.86;69.21
13011;BME280;6786;57.632;11.962;2023-08-30T07:57:41;99994.56;;;20.88;68.92
13011;BME280;6786;57.632;11.962;2023-08-30T08:00:11;99991.22;;;20.86;69.24
13011;BME280;6786;57.632;11.962;2023-08-30T08:02:41;99936.94;;;20.50;68.92
13011;BME280;6786;57.632;11.962;2023-08-30T08:05:09;99999.13;;;20.87;69.35
13011;BME280;6786;57.632;11.962;2023-08-30T08:07:42;99999.13;;;20.87;69.07
13011;BME280;6786;57.632;11.962;2023-08-30T08:10:11;99976.09;;;20.77;69.32
13011;BME280;6786;57.632;11.962;2023-08-30T08:12:41;99990.03;;;20.88;69.17
13011;BME280;6786;57.632;11.962;2023-08-30T08:15:10;99995.41;;;20.88;69.00
13011;BME280;6786;57.632;11.962;2023-08-30T08:17:38;99873.06;;;20.12;69.31
13011;BME280;6786;57.632;11.962;2023-08-30T08:20:09;99995.41;;;20.88;69.29
13011;BME280;6786;57.632;11.962;2023-08-30T08:22:37;99995.41;;;20.88;69.28
13011;BME280;6786;57.632;11.962;2023-08-30T08:25:09;99917.41;;;20.40;68.93
13011;BME280;6786;57.632;11.962;2023-08-30T08:27:44;99920.25;;;20.39;69.09
13011;BME280;6786;57.632;11.962;2023-08-30T08:30:13;99990.03;;;20.88;68.99
13011;BME280;6786;57.632;11.962;2023-08-30T08:32:46;100001.63;;;20.89;69.30
13011;BME280;6786;57.632;11.962;2023-08-30T08:35:16;99983.00;;;20.87;69.39
13011;BME280;6786;57.632;11.962;2023-08-30T08:37:45;99836.59;;;19.94;68.94
13011;BME280;6786;57.632;11.962;2023-08-30T08:40:14;99991.72;;;20.89;69.10
13011;BME280;6786;57.632;11.962;2023-08-30T08:42:55;99998.09;;;20.88;69.32
13011;BME280;6786;57.632;11.962;2023-08-30T08:45:26;99985.34;;;20.90;69.00
13011;BME280;6786;57.632;11.962;2023-08-30T08:47:55;99982.69;;;20.90;69.24
13011;BME280;6786;57.632;11.962;2023-08-30T08:50:27;99984.66;;;20.88;69.50
13011;BME280;6786;57.632;11.962;2023-08-30T08:52:57;99981.31;;;20.86;69.41
13011;BME280;6786;57.632;11.962;2023-08-30T08:55:27;99919.78;;;20.43;69.29
13011;BME280;6786;57.632;11.962;2023-08-30T08:57:57;99981.31;;;20.86;69.43
13011;BME280;6786;57.632;11.962;2023-08-30T09:00:27;99979.31;;;20.88;69.24
13011;BME280;6786;57.632;11.962;2023-08-30T09:03:01;99990.03;;;20.88;69.43
13011;BME280;6786;57.632;11.962;2023-08-30T09:05:33;99984.66;;;20.88;69.31
13011;BME280;6786;57.632;11.962;2023-08-30T09:08:02;99986.66;;;20.86;69.54
13011;BME280;6786;57.632;11.962;2023-08-30T09:10:33;99981.31;;;20.86;69.56
13011;BME280;6786;57.632;11.962;2023-08-30T09:13:04;99988.38;;;20.87;69.34
13011;BME280;6786;57.632;11.962;2023-08-30T09:15:35;99995.56;;;20.87;69.29
13011;BME280;6786;57.632;11.962;2023-08-30T09:18:14;99994.72;;;20.86;69.59
13011;BME280;6786;57.632;11.962;2023-08-30T09:20:45;99987.00;;;20.83;69.44
13011;BME280;6786;57.632;11.962;2023-08-30T09:23:17;99992.03;;;20.86;69.36
13011;BME280;6786;57.632;11.962;2023-08-30T09:25:47;99916.44;;;20.41;69.60
13011;BME280;6786;57.632;11.962;2023-08-30T09:28:22;99989.34;;;20.86;69.55
13011;BME280;6786;57.632;11.962;2023-08-30T09:30:51;99992.91;;;20.87;69.64
13011;BME280;6786;57.632;11.962;2023-08-30T09:33:22;99995.75;;;20.85;69.62
13011;BME280;6786;57.632;11.962;2023-08-30T09:35:52;99993.75;;;20.87;69.33
13011;BME280;6786;57.632;11.962;2023-08-30T09:38:21;99990.03;;;20.88;69.47
13011;BME280;6786;57.632;11.962;2023-08-30T09:40:50;99977.75;;;20.78;69.30
13011;BME280;6786;57.632;11.962;2023-08-30T09:43:20;99999.13;;;20.87;69.38
13011;BME280;6786;57.632;11.962;2023-08-30T09:45:50;100016.06;;;20.88;69.47
13011;BME280;6786;57.632;11.962;2023-08-30T09:48:21;99971.22;;;20.72;69.51
13011;BME280;6786;57.632;11.962;2023-08-30T09:50:54;99993.75;;;20.87;69.55
13011;BME280;6786;57.632;11.962;2023-08-30T09:53:26;100001.81;;;20.87;69.43
13011;BME280;6786;57.632;11.962;2023-08-30T09:55:55;99935.88;;;20.43;69.46
13011;BME280;6786;57.632;11.962;2023-08-30T09:58:25;99998.09;;;20.88;69.66
13011;BME280;6786;57.632;11.962;2023-08-30T10:00:56;99998.28;;;20.87;69.88
13011;BME280;6786;57.632;11.962;2023-08-30T10:03:30;99999.13;;;20.87;69.47
13011;BME280;6786;57.632;11.962;2023-08-30T10:06:05;99995.56;;;20.87;69.79
13011;BME280;6786;57.632;11.962;2023-08-30T10:08:36;99983.97;;;20.86;69.83
13011;BME280;6786;57.632;11.962;2023-08-30T10:11:06;99922.47;;;20.43;69.78
13011;BME280;6786;57.632;11.962;2023-08-30T10:13:37;99989.19;;;20.88;69.87
13011;BME280;6786;57.632;11.962;2023-08-30T10:16:08;99899.59;;;20.31;69.72
13011;BME280;6786;57.632;11.962;2023-08-30T10:18:40;99988.38;;;20.87;69.52
13011;BME280;6786;57.632;11.962;2023-08-30T10:21:27;99849.84;;;20.03;69.79
13011;BME280;6786;57.632;11.962;2023-08-30T10:23:58;99973.25;;;20.78;69.60
13011;BME280;6786;57.632;11.962;2023-08-30T10:26:35;99986.00;;;20.84;69.99
13011;BME280;6786;57.632;11.962;2023-08-30T10:29:06;99994.72;;;20.86;69.75
13011;BME280;6786;57.632;11.962;2023-08-30T10:31:35;99991.72;;;20.89;69.64
13011;BME280;6786;57.632;11.962;2023-08-30T10:34:13;99989.19;;;20.88;69.95
13011;BME280;6786;57.632;11.962;2023-08-30T10:36:45;99995.41;;;20.88;69.59
13011;BME280;6786;57.632;11.962;2023-08-30T10:39:33;99979.59;;;20.77;69.62
13011;BME280;6786;57.632;11.962;2023-08-30T10:42:08;99929.53;;;20.52;69.62
13011;BME280;6786;57.632;11.962;2023-08-30T10:44:47;99992.72;;;20.88;69.83
13011;BME280;6786;57.632;11.962;2023-08-30T10:47:37;99985.31;;;20.82;69.92
13011;BME280;6786;57.632;11.962;2023-08-30T10:50:10;99991.72;;;20.89;69.70
13011;BME280;6786;57.632;11.962;2023-08-30T10:52:41;99992.03;;;20.86;69.83
13011;BME280;6786;57.632;11.962;2023-08-30T10:55:11;100001.63;;;20.89;69.78
13011;BME280;6786;57.632;11.962;2023-08-30T10:57:42;99990.38;;;20.85;70.12
13011;BME280;6786;57.632;11.962;2023-08-30T11:00:15;100001.13;;;20.85;69.90
13011;BME280;6786;57.632;11.962;2023-08-30T11:02:49;99997.94;;;20.90;69.94
13011;BME280;6786;57.632;11.962;2023-08-30T11:05:20;99908.72;;;20.38;69.88
13011;BME280;6786;57.632;11.962;2023-08-30T11:07:51;99990.03;;;20.88;69.96
13011;BME280;6786;57.632;11.962;2023-08-30T11:10:20;99996.28;;;20.89;69.83
13011;BME280;6786;57.632;11.962;2023-08-30T11:12:49;99990.72;;;20.90;69.83
13011;BME280;6786;57.632;11.962;2023-08-30T11:15:19;99990.03;;;20.88;69.87
13011;BME280;6786;57.632;11.962;2023-08-30T11:17:48;99997.09;;;20.89;70.13
13011;BME280;6786;57.632;11.962;2023-08-30T11:20:17;99960.63;;;20.71;69.85
13011;BME280;6786;57.632;11.962;2023-08-30T11:22:48;99911.56;;;20.37;69.86
13011;BME280;6786;57.632;11.962;2023-08-30T11:25:19;99992.91;;;20.87;69.89
13011;BME280;6786;57.632;11.962;2023-08-30T11:27:48;99916.28;;;20.43;70.23
13011;BME280;6786;57.632;11.962;2023-08-30T11:30:17;100003.31;;;20.90;70.23
13011;BME280;6786;57.632;11.962;2023-08-30T11:32:47;99919.59;;;20.45;70.30
13011;BME280;6786;57.632;11.962;2023-08-30T11:35:17;99997.09;;;20.89;70.14
13011;BME280;6786;57.632;11.962;2023-08-30T11:37:46;99991.06;;;20.87;69.89
13011;BME280;6786;57.632;11.962;2023-08-30T11:40:15;99987.34;;;20.88;70.19
13011;BME280;6786;57.632;11.962;2023-08-30T11:42:45;99991.72;;;20.89;70.10
13011;BME280;6786;57.632;11.962;2023-08-30T11:45:14;99990.03;;;20.88;69.87
13011;BME280;6786;57.632;11.962;2023-08-30T11:47:43;99986.34;;;20.89;70.09
13011;BME280;6786;57.632;11.962;2023-08-30T11:50:12;99988.88;;;20.83;70.20
13011;BME280;6786;57.632;11.962;2023-08-30T11:52:41;99992.56;;;20.90;69.83
13011;BME280;6786;57.632;11.962;2023-08-30T11:55:10;99984.66;;;20.88;69.91
13011;BME280;6786;57.632;11.962;2023-08-30T11:57:44;99964.81;;;20.73;70.14
13011;BME280;6786;57.632;11.962;2023-08-30T12:00:14;99852.22;;;20.06;69.78
13011;BME280;6786;57.632;11.962;2023-08-30T12:02:42;99984.66;;;20.88;70.11
13011;BME280;6786;57.632;11.962;2023-08-30T12:05:12;99983.00;;;20.87;70.27
13011;BME280;6786;57.632;11.962;2023-08-30T12:07:41;99979.31;;;20.88;70.15
13011;BME280;6786;57.632;11.962;2023-08-30T12:10:11;99980.97;;;20.89;69.98
13011;BME280;6786;57.632;11.962;2023-08-30T12:12:46;99972.91;;;20.89;70.02
13011;BME280;6786;57.632;11.962;2023-08-30T12:15:14;99966.03;;;20.87;69.87
13011;BME280;6786;57.632;11.962;2023-08-30T12:17:44;99878.28;;;20.22;70.08
13011;BME280;6786;57.632;11.962;2023-08-30T12:20:16;99890.56;;;20.32;70.04
13011;BME280;6786;57.632;11.962;2023-08-30T12:22:47;99981.81;;;20.90;69.94
13011;BME280;6786;57.632;11.962;2023-08-30T12:25:19;99985.34;;;20.90;69.95
13011;BME280;6786;57.632;11.962;2023-08-30T12:27:51;99871.44;;;20.27;70.05
13011;BME280;6786;57.632;11.962;2023-08-30T12:30:20;99983.31;;;20.92;69.74
13011;BME280;6786;57.632;11.962;2023-08-30T12:32:48;99893.59;;;20.37;70.14
13011;BME280;6786;57.632;11.962;2023-08-30T12:35:17;99980.66;;;20.92;70.04
13011;BME280;6786;57.632;11.962;2023-08-30T12:37:46;99986.00;;;20.92;70.09
13011;BME280;6786;57.632;11.962;2023-08-30T12:40:16;99977.63;;;20.87;69.93
13011;BME280;6786;57.632;11.962;2023-08-30T12:42:44;99987.72;;;20.93;70.01
13011;BME280;6786;57.632;11.962;2023-08-30T12:45:14;99833.25;;;20.00;69.95
13011;BME280;6786;57.632;11.962;2023-08-30T12:47:42;99983.16;;;20.94;69.79
13011;BME280;6786;57.632;11.962;2023-08-30T12:50:11;99987.72;;;20.93;69.97
13011;BME280;6786;57.632;11.962;2023-08-30T12:52:40;99982.34;;;20.93;70.04
13011;BME280;6786;57.632;11.962;2023-08-30T12:55:09;99989.41;;;20.94;69.85
13011;BME280;6786;57.632;11.962;2023-08-30T12:57:39;99986.34;;;20.89;70.20
13011;BME280;6786;57.632;11.962;2023-08-30T13:00:08;99971.59;;;20.93;70.00
13011;BME280;6786;57.632;11.962;2023-08-30T13:02:38;99989.41;;;20.94;70.12
13011;BME280;6786;57.632;11.962;2023-08-30T13:05:07;99975.81;;;20.96;70.03
13011;BME280;6786;57.632;11.962;2023-08-30T13:07:35;99991.09;;;20.95;70.11
13011;BME280;6786;57.632;11.962;2023-08-30T13:10:05;99993.78;;;20.95;70.03
13011;BME280;6786;57.632;11.962;2023-08-30T13:12:33;99992.78;;;20.96;70.12